Hlavní strana
METAR-TAF:

METAR-TAF

Letiště :

Kokomo Municipal Airport

Kokomo, Indiana, Spojené státy americké

zeměpisná šířka: 40-32N, zeměpisná délka: 086-04W, výška: 253 m

Aktuální stav počasí

Zpráva byla vytvořena před 1 hodinou a 25 minutami, v 02:56 UTC
Jihozápadní vítr 15 kt
Teplota -2°C
Vlhkost vzduchu 59%
Tlak 1030 hPa
Viditelnost: 16.1 km
Jasno

METAR: KOKK 220256Z AUTO 22015KT 10SM CLR M02/M09 A3041 RMK AO2 SLP311 T10221089 58017 FZRANO

Čas: 23:21 (04:21 UTC)


TAF: chybějící

Stav a předpovědi počasí z více než 4 000 letišť (zprávy METAR a TAF).

Červené a žluté tečky na mapě představují dostupné meteorologické stanice.

Když kurzor umístíte na tečku, zobrazí se název stanice.

Pak kliknutím zobrazíte stav a předpověď počasí.

Chcete-li změnit mapu, kliknutím na zelené tlačítko se znaménkem +mapu přiblížíte, kliknutím na zelené tlačítko se znaménkem – mapu oddálíte a kliknutím na zelené šipky přejdete na sousední mapy.


METAR-TAF: